Time;durP1;ratioP1;P1;durP2;ratioP2;P2;SDS_P1;SDS_P2;PMS_P1;PMS_P2;Temp;Humidity;BMP_temperature;BMP_pressure;BME280_temperature;BME280_humidity;BME280_pressure;Samples;Min_cycle;Max_cycle;Signal;HPM_P1;HPM_P2
2023/04/16 00:00:27;;;;;;;10.20;4.37;;;;;;;12.44;68.11;94131.50;4948712;28;20217;-80
2023/04/16 00:02:54;;;;;;;9.40;4.67;;;;;;;12.33;70.32;94110.75;4950449;29;20257;-79
2023/04/16 00:05:21;;;;;;;6.40;4.20;;;;;;;12.41;69.58;94128.56;4953485;29;20225;-83
2023/04/16 00:07:50;;;;;;;6.73;4.20;;;;;;;12.39;67.70;94121.00;4952898;29;20209;-82
2023/04/16 00:10:17;;;;;;;6.23;4.10;;;;;;;12.29;67.80;94126.09;4949157;29;20206;-76
2023/04/16 00:12:44;;;;;;;9.00;4.50;;;;;;;12.29;68.37;94125.31;4949469;29;20686;-76
2023/04/16 00:15:11;;;;;;;8.67;4.83;;;;;;;12.26;68.93;94131.81;4947698;28;20585;-76
2023/04/16 00:17:39;;;;;;;7.97;5.17;;;;;;;12.24;68.12;94127.84;4948313;29;20799;-77
2023/04/16 00:20:08;;;;;;;9.47;5.57;;;;;;;12.19;66.28;94131.16;4950717;29;21141;-77
2023/04/16 00:22:34;;;;;;;12.70;5.80;;;;;;;12.13;64.55;94126.91;4949617;29;20209;-78
2023/04/16 00:25:01;;;;;;;10.70;5.83;;;;;;;12.08;63.97;94119.03;4947727;28;20221;-80
2023/04/16 00:27:28;;;;;;;13.70;6.60;;;;;;;12.14;63.27;94130.31;4951907;28;20212;-81
2023/04/16 00:29:55;;;;;;;12.93;6.90;;;;;;;12.01;63.14;94121.00;4951508;28;20213;-79
2023/04/16 00:32:22;;;;;;;18.53;6.97;;;;;;;12.00;64.21;94127.28;4949502;28;20249;-80
2023/04/16 00:34:50;;;;;;;15.87;6.97;;;;;;;11.95;63.24;94124.56;4949538;28;20205;-80
2023/04/16 00:37:16;;;;;;;11.50;6.40;;;;;;;11.89;62.93;94125.53;4945088;29;20458;-79
2023/04/16 00:39:43;;;;;;;14.00;6.33;;;;;;;11.86;62.50;94120.81;4951466;28;20677;-81
2023/04/16 00:42:10;;;;;;;12.73;6.43;;;;;;;11.86;62.15;94128.63;4952413;28;20201;-79
2023/04/16 00:44:37;;;;;;;11.33;6.20;;;;;;;11.79;62.71;94126.19;4951109;29;20233;-80
2023/04/16 00:47:06;;;;;;;11.90;5.87;;;;;;;11.75;62.41;94122.47;4950141;29;20661;-79
2023/04/16 00:49:33;;;;;;;12.50;5.40;;;;;;;11.75;62.09;94111.25;4946817;29;20668;-79
2023/04/16 00:52:02;;;;;;;12.83;5.77;;;;;;;11.72;62.00;94116.94;4952117;28;20197;-81
2023/04/16 00:54:30;;;;;;;15.93;5.80;;;;;;;11.66;62.61;94115.28;4946397;28;20629;-80
2023/04/16 00:56:58;;;;;;;14.00;6.10;;;;;;;11.65;63.11;94117.09;4946478;29;20240;-79
2023/04/16 00:59:25;;;;;;;10.47;5.30;;;;;;;11.61;63.51;94115.19;4952006;29;20202;-80
2023/04/16 01:01:52;;;;;;;12.73;5.87;;;;;;;11.55;63.80;94116.13;4951906;28;20307;-80
2023/04/16 01:04:19;;;;;;;12.27;5.80;;;;;;;11.49;63.48;94107.47;4950796;28;20228;-80
2023/04/16 01:06:45;;;;;;;10.00;5.57;;;;;;;11.49;64.11;94110.06;4950561;28;20217;-79
2023/04/16 01:09:14;;;;;;;12.93;4.70;;;;;;;11.47;62.82;94106.91;4948010;29;20198;-80
2023/04/16 01:11:40;;;;;;;17.23;6.87;;;;;;;11.35;64.39;94093.19;4950013;29;20209;-79
2023/04/16 01:14:07;;;;;;;15.30;5.87;;;;;;;11.28;64.98;94102.97;4946590;29;20695;-79
2023/04/16 01:16:34;;;;;;;14.83;6.27;;;;;;;11.22;64.26;94109.91;4947546;29;20300;-80
2023/04/16 01:19:01;;;;;;;12.33;6.10;;;;;;;11.17;65.02;94106.41;4947508;29;20204;-80
2023/04/16 01:21:30;;;;;;;10.40;5.73;;;;;;;11.15;65.44;94100.66;4945375;29;20206;-78
2023/04/16 01:23:56;;;;;;;12.23;6.13;;;;;;;11.16;65.74;94108.25;4946998;29;20224;-78
2023/04/16 01:26:23;;;;;;;15.07;7.20;;;;;;;11.08;66.24;94108.59;4950565;28;20209;-79
2023/04/16 01:28:50;;;;;;;12.57;7.23;;;;;;;11.01;67.47;94110.56;4949527;29;20220;-78
2023/04/16 01:31:17;;;;;;;22.17;8.17;;;;;;;10.94;68.58;94104.72;4947666;28;20201;-78
2023/04/16 01:33:44;;;;;;;18.07;7.90;;;;;;;10.93;68.88;94099.75;4950862;29;20201;-78
2023/04/16 01:36:10;;;;;;;18.20;7.73;;;;;;;10.90;69.84;94100.22;4943880;28;20206;-78
2023/04/16 01:38:39;;;;;;;20.43;8.17;;;;;;;10.89;70.99;94090.84;4950821;28;20235;-78
2023/04/16 01:41:05;;;;;;;18.23;8.40;;;;;;;10.86;71.09;94102.50;4948284;29;20208;-79
2023/04/16 01:43:32;;;;;;;16.47;8.60;;;;;;;10.78;71.43;94095.88;4949576;29;20213;-78
2023/04/16 01:46:13;;;;;;;17.87;8.03;;;;;;;10.76;71.49;94090.09;4951214;29;20224;-81
2023/04/16 01:48:40;;;;;;;17.57;8.43;;;;;;;10.68;71.81;94087.88;4951153;29;20198;-80
2023/04/16 01:51:07;;;;;;;17.43;7.90;;;;;;;10.68;71.77;94081.88;4949978;28;20794;-81
2023/04/16 01:53:33;;;;;;;17.07;7.73;;;;;;;10.65;70.21;94083.16;4944296;29;20267;-80
2023/04/16 01:56:02;;;;;;;15.10;6.93;;;;;;;10.67;68.84;94081.13;4946263;29;20288;-78
2023/04/16 01:58:29;;;;;;;14.30;7.93;;;;;;;10.59;69.98;94073.69;4944564;29;20201;-79
2023/04/16 02:00:56;;;;;;;15.60;6.90;;;;;;;10.58;68.92;94081.72;4948150;28;20261;-77
2023/04/16 02:03:24;;;;;;;12.10;6.27;;;;;;;10.57;68.33;94090.53;4943049;29;20202;-76
2023/04/16 02:05:51;;;;;;;17.87;7.60;;;;;;;10.59;67.87;94078.88;4948148;29;20231;-76
2023/04/16 02:08:17;;;;;;;12.97;7.47;;;;;;;10.61;68.78;94083.84;4948011;29;20213;-76
2023/04/16 02:10:46;;;;;;;15.77;7.20;;;;;;;10.58;69.73;94085.09;4944988;29;20656;-77
2023/04/16 02:13:15;;;;;;;21.63;8.50;;;;;;;10.59;71.01;94081.47;4940898;29;20657;-78
2023/04/16 02:15:46;;;;;;;14.47;7.43;;;;;;;10.50;71.88;94074.28;4946015;29;20292;-78
2023/04/16 02:18:12;;;;;;;17.70;7.87;;;;;;;10.51;71.74;94076.66;4939400;29;20273;-78
2023/04/16 02:20:41;;;;;;;21.77;8.80;;;;;;;10.53;71.80;94079.03;4947372;28;20688;-78
2023/04/16 02:23:09;;;;;;;15.97;8.27;;;;;;;10.51;71.80;94071.44;4948951;28;20810;-77
2023/04/16 02:25:40;;;;;;;23.73;8.83;;;;;;;10.54;72.01;94072.78;4942406;29;20273;-78
2023/04/16 02:28:07;;;;;;;22.63;8.83;;;;;;;10.41;72.53;94060.09;4949736;28;20200;-78
2023/04/16 02:30:35;;;;;;;21.87;8.77;;;;;;;10.56;72.76;94068.19;4945634;29;20297;-78
2023/04/16 02:33:04;;;;;;;21.53;9.10;;;;;;;10.56;72.83;94074.13;4944899;29;20280;-77
2023/04/16 02:35:31;;;;;;;27.97;8.50;;;;;;;10.52;72.57;94070.44;4943555;29;20277;-78
2023/04/16 02:37:58;;;;;;;16.93;8.00;;;;;;;10.49;72.26;94072.72;4946989;29;20205;-77
2023/04/16 02:40:25;;;;;;;21.53;8.37;;;;;;;10.48;72.11;94076.31;4945323;28;20930;-77
2023/04/16 02:42:51;;;;;;;16.70;6.73;;;;;;;10.44;72.12;94073.41;4946558;29;20206;-76
2023/04/16 02:45:18;;;;;;;13.57;5.73;;;;;;;10.22;71.05;94052.47;4945023;29;20225;-77
2023/04/16 02:47:46;;;;;;;9.07;5.80;;;;;;;10.24;71.35;94063.41;4945880;28;20213;-76
2023/04/16 02:50:13;;;;;;;13.37;6.53;;;;;;;10.24;71.88;94065.22;4941153;29;20264;-77
2023/04/16 02:52:40;;;;;;;14.63;7.00;;;;;;;10.30;72.06;94063.53;4944733;29;20197;-77
2023/04/16 02:55:08;;;;;;;19.27;7.43;;;;;;;10.31;72.76;94059.88;4949388;28;20248;-78
2023/04/16 02:57:35;;;;;;;12.97;6.20;;;;;;;10.34;72.87;94062.81;4944163;29;20372;-77
2023/04/16 03:00:16;;;;;;;9.67;5.10;;;;;;;10.25;71.32;94057.19;4944607;29;20202;-78
2023/04/16 03:02:47;;;;;;;7.80;4.97;;;;;;;10.29;70.38;94059.34;4949431;29;20226;-77
2023/04/16 03:05:14;;;;;;;11.20;5.60;;;;;;;10.32;70.88;94062.28;4942925;29;20218;-77
2023/04/16 03:07:41;;;;;;;9.93;5.97;;;;;;;10.31;71.99;94065.88;4948623;29;20202;-77
2023/04/16 03:13:16;;;;;;;19.07;7.67;;;;;;;10.32;72.64;94066.66;4949778;28;20747;-79
2023/04/16 03:15:48;;;;;;;18.73;9.07;;;;;;;10.29;73.70;94067.91;4950475;29;20197;-79
2023/04/16 03:18:16;;;;;;;18.67;9.90;;;;;;;10.34;72.52;94070.59;4947174;28;20206;-78
2023/04/16 03:20:51;;;;;;;28.73;11.40;;;;;;;10.39;72.57;94083.69;4948442;29;20198;-81
2023/04/16 03:23:18;;;;;;;23.67;12.37;;;;;;;10.45;72.55;94079.38;4947310;29;20361;-81
2023/04/16 03:25:46;;;;;;;26.50;12.23;;;;;;;10.34;72.18;94064.63;4950464;28;20253;-80
2023/04/16 03:28:13;;;;;;;28.80;12.57;;;;;;;10.43;72.06;94073.63;4941569;29;20196;-80
2023/04/16 03:30:40;;;;;;;34.57;12.50;;;;;;;10.44;72.54;94072.63;4951038;28;20202;-80
2023/04/16 03:33:07;;;;;;;28.53;11.23;;;;;;;10.45;71.92;94077.56;4949275;29;20213;-81
2023/04/16 03:35:35;;;;;;;27.50;12.13;;;;;;;10.49;72.55;94085.69;4953558;29;20213;-81
2023/04/16 03:38:02;;;;;;;23.63;11.10;;;;;;;10.41;72.06;94081.66;4952423;29;20550;-80
2023/04/16 03:40:29;;;;;;;25.40;10.97;;;;;;;10.40;72.33;94092.28;4950982;28;20228;-79
2023/04/16 03:42:55;;;;;;;23.63;10.10;;;;;;;10.33;72.28;94089.03;4950507;29;20205;-80
2023/04/16 03:45:22;;;;;;;21.77;10.07;;;;;;;10.31;71.85;94080.66;4953218;29;20245;-81
2023/04/16 03:47:51;;;;;;;19.03;8.97;;;;;;;10.35;71.24;94092.97;4951388;28;20210;-76
2023/04/16 03:50:18;;;;;;;17.30;8.13;;;;;;;10.29;70.91;94091.28;4948937;29;20256;-77
2023/04/16 03:52:48;;;;;;;19.33;8.93;;;;;;;10.33;71.04;94084.63;4949269;29;20209;-78
2023/04/16 03:55:15;;;;;;;17.03;8.70;;;;;;;10.32;71.89;94088.22;4953074;29;20653;-78
2023/04/16 03:57:42;;;;;;;18.03;8.93;;;;;;;10.30;71.61;94086.91;4950735;29;20202;-78
2023/04/16 04:00:09;;;;;;;20.73;9.10;;;;;;;10.26;71.35;94083.97;4948256;28;20205;-78
2023/04/16 04:02:36;;;;;;;17.70;8.97;;;;;;;10.24;71.73;94086.00;4949912;28;20675;-78
2023/04/16 04:05:02;;;;;;;17.53;8.30;;;;;;;10.19;72.09;94081.47;4946342;29;20724;-77
2023/04/16 04:07:29;;;;;;;16.83;7.73;;;;;;;10.23;70.99;94090.41;4951933;29;20206;-78
2023/04/16 04:09:57;;;;;;;15.13;7.70;;;;;;;10.36;70.95;94094.53;4950304;28;20198;-78
2023/04/16 04:12:25;;;;;;;21.30;7.87;;;;;;;10.41;69.94;94094.66;4949862;29;20238;-78
2023/04/16 04:14:51;;;;;;;13.17;6.77;;;;;;;10.42;70.86;94096.22;4949696;29;20209;-78
2023/04/16 04:17:18;;;;;;;13.23;6.47;;;;;;;10.38;71.12;94094.31;4953120;29;20269;-78
2023/04/16 04:19:45;;;;;;;12.80;6.00;;;;;;;10.42;70.80;94108.44;4947945;29;20202;-77
2023/04/16 04:22:12;;;;;;;11.53;5.77;;;;;;;10.49;70.14;94101.28;4953173;29;20221;-80
2023/04/16 04:24:38;;;;;;;11.07;6.00;;;;;;;10.54;70.65;94106.56;4947882;29;20209;-80
2023/04/16 04:27:07;;;;;;;9.87;5.30;;;;;;;10.60;70.78;94108.25;4949315;29;20244;-81
2023/04/16 04:29:33;;;;;;;9.60;5.20;;;;;;;10.60;70.27;94113.44;4947490;29;20240;-80
2023/04/16 04:32:00;;;;;;;9.73;5.10;;;;;;;10.63;69.77;94107.78;4951828;29;20292;-79
2023/04/16 04:34:27;;;;;;;9.10;5.20;;;;;;;10.63;70.46;94108.59;4945900;29;20610;-79
2023/04/16 04:36:53;;;;;;;11.53;5.40;;;;;;;10.66;70.47;94108.13;4948458;29;20637;-79
2023/04/16 04:39:20;;;;;;;12.63;5.90;;;;;;;10.61;70.82;94102.84;4951835;28;20626;-79
2023/04/16 04:41:47;;;;;;;14.47;6.00;;;;;;;10.62;70.48;94108.81;4948296;28;20203;-80
2023/04/16 04:44:15;;;;;;;11.23;5.33;;;;;;;10.63;70.62;94110.38;4946003;29;20683;-80
2023/04/16 04:46:42;;;;;;;10.53;5.73;;;;;;;10.62;71.39;94114.78;4949408;29;20244;-80
2023/04/16 04:49:09;;;;;;;13.07;5.90;;;;;;;10.73;70.80;94116.59;4949507;29;21089;-82
2023/04/16 04:51:36;;;;;;;10.40;5.93;;;;;;;10.81;70.29;94118.00;4951814;28;21015;-80
2023/04/16 04:54:02;;;;;;;9.97;5.97;;;;;;;10.83;69.76;94118.56;4951817;28;20225;-80
2023/04/16 04:56:29;;;;;;;10.90;6.70;;;;;;;10.85;69.79;94118.34;4951585;29;21007;-82
2023/04/16 04:58:56;;;;;;;11.67;6.27;;;;;;;10.86;70.63;94117.31;4952114;28;20288;-80
2023/04/16 05:01:24;;;;;;;12.30;6.43;;;;;;;10.87;70.26;94116.28;4948532;29;20233;-81
2023/04/16 05:03:51;;;;;;;11.00;6.60;;;;;;;10.83;70.81;94113.34;4947305;29;20850;-80
2023/04/16 05:06:18;;;;;;;11.53;6.33;;;;;;;10.85;70.54;94116.50;4949038;29;20224;-80
2023/04/16 05:08:45;;;;;;;11.60;6.37;;;;;;;10.85;70.10;94118.34;4950697;29;20197;-79
2023/04/16 05:11:12;;;;;;;12.43;6.43;;;;;;;10.91;69.68;94125.97;4952473;28;20206;-80
2023/04/16 05:13:39;;;;;;;12.53;6.03;;;;;;;10.89;70.34;94122.03;4952056;29;20202;-81
2023/04/16 05:16:06;;;;;;;14.10;6.37;;;;;;;10.90;69.22;94121.03;4951604;29;20205;-80
2023/04/16 05:18:35;;;;;;;13.13;6.53;;;;;;;10.92;69.66;94122.38;4950772;29;20197;-80
2023/04/16 05:21:01;;;;;;;13.70;6.80;;;;;;;10.92;69.06;94118.97;4951804;29;20206;-81
2023/04/16 05:23:28;;;;;;;14.80;6.97;;;;;;;10.88;68.90;94116.03;4949527;28;20197;-80
2023/04/16 05:25:55;;;;;;;12.53;6.93;;;;;;;10.90;68.22;94127.03;4950480;29;20218;-80
2023/04/16 05:28:22;;;;;;;14.60;6.57;;;;;;;10.97;66.84;94121.66;4949349;28;20606;-79
2023/04/16 05:30:49;;;;;;;15.67;7.00;;;;;;;11.03;66.36;94120.72;4950351;29;20197;-80
2023/04/16 05:33:18;;;;;;;12.97;6.40;;;;;;;11.04;66.64;94117.91;4948645;28;20197;-81
2023/04/16 05:35:46;;;;;;;8.67;5.70;;;;;;;11.05;65.74;94122.09;4951323;29;20584;-80
2023/04/16 05:38:13;;;;;;;17.87;6.27;;;;;;;11.10;65.55;94127.38;4950249;29;20190;-80
2023/04/16 05:40:40;;;;;;;18.50;6.80;;;;;;;11.14;65.88;94119.91;4949165;29;20584;-80
2023/04/16 05:43:06;;;;;;;15.80;6.70;;;;;;;11.07;66.78;94108.84;4948186;29;20217;-80
2023/04/16 05:45:38;;;;;;;12.73;6.30;;;;;;;11.14;66.20;94112.88;4948579;29;20244;-81
2023/04/16 05:48:05;;;;;;;14.47;6.60;;;;;;;11.22;66.13;94125.50;4946761;28;20252;-80
2023/04/16 05:50:32;;;;;;;13.33;6.40;;;;;;;11.27;66.52;94130.00;4948907;29;20312;-80
2023/04/16 05:53:00;;;;;;;13.30;6.30;;;;;;;11.25;65.96;94125.06;4949710;28;20256;-82
2023/04/16 05:55:27;;;;;;;14.93;5.93;;;;;;;11.29;65.62;94126.13;4943552;28;20252;-80
2023/04/16 05:57:54;;;;;;;11.13;5.80;;;;;;;11.33;64.76;94129.84;4948184;29;20736;-79
2023/04/16 06:00:21;;;;;;;12.47;5.80;;;;;;;11.19;65.04;94125.19;4949942;29;20288;-79
2023/04/16 06:02:47;;;;;;;18.40;6.43;;;;;;;11.16;65.95;94128.25;4944914;29;20344;-79
2023/04/16 06:05:14;;;;;;;15.77;7.33;;;;;;;11.12;67.05;94124.53;4943977;29;21016;-80
2023/04/16 06:07:41;;;;;;;15.30;7.53;;;;;;;11.09;67.31;94125.00;4944706;29;20212;-79
2023/04/16 06:10:10;;;;;;;14.77;7.67;;;;;;;11.04;68.32;94112.72;4949689;29;20212;-79
2023/04/16 06:12:37;;;;;;;18.93;7.50;;;;;;;11.21;67.52;94123.13;4950028;29;20200;-80
2023/04/16 06:15:04;;;;;;;12.53;6.73;;;;;;;11.23;67.34;94124.47;4949254;29;20220;-80
2023/04/16 06:17:31;;;;;;;14.30;6.70;;;;;;;11.33;68.14;94129.06;4945232;29;20236;-80
2023/04/16 06:19:58;;;;;;;11.83;7.27;;;;;;;11.41;67.82;94120.88;4946134;29;20256;-79
2023/04/16 06:22:25;;;;;;;13.30;7.67;;;;;;;11.50;67.31;94126.47;4947090;28;20205;-79
2023/04/16 06:24:53;;;;;;;14.50;7.20;;;;;;;11.59;66.13;94127.66;4949202;29;20204;-79
2023/04/16 06:27:21;;;;;;;12.23;6.97;;;;;;;11.64;65.80;94123.31;4947695;28;20229;-79
2023/04/16 06:29:48;;;;;;;10.90;7.10;;;;;;;11.74;65.91;94128.72;4945849;29;20213;-77
2023/04/16 06:32:16;;;;;;;11.33;6.77;;;;;;;11.79;65.64;94126.19;4941986;29;20265;-77
2023/04/16 06:34:42;;;;;;;12.13;6.83;;;;;;;11.75;65.93;94122.47;4946350;29;20252;-76
2023/04/16 06:37:09;;;;;;;11.03;6.53;;;;;;;11.83;64.86;94121.31;4946421;29;20290;-77
2023/04/16 06:39:36;;;;;;;12.87;6.53;;;;;;;11.91;64.50;94113.06;4946178;29;20209;-76
2023/04/16 06:42:04;;;;;;;12.63;7.03;;;;;;;11.89;64.25;94115.91;4940552;29;20217;-77
2023/04/16 06:44:32;;;;;;;10.47;6.80;;;;;;;11.76;63.97;94107.66;4944601;29;20305;-77
2023/04/16 06:46:59;;;;;;;9.40;6.23;;;;;;;11.79;64.98;94125.38;4940512;29;20218;-77
2023/04/16 06:49:26;;;;;;;10.47;6.17;;;;;;;11.86;65.57;94120.81;4945033;29;20201;-76
2023/04/16 06:51:52;;;;;;;13.20;5.97;;;;;;;11.95;64.57;94121.97;4943866;29;20554;-77
2023/04/16 06:54:19;;;;;;;11.60;6.70;;;;;;;12.03;64.14;94120.78;4943166;29;20205;-76
2023/04/16 06:56:46;;;;;;;9.93;6.23;;;;;;;12.10;64.16;94122.19;4943314;28;20210;-76
2023/04/16 06:59:13;;;;;;;10.20;6.03;;;;;;;12.15;64.37;94118.88;4944527;29;20585;-80
2023/04/16 07:01:41;;;;;;;10.33;6.47;;;;;;;12.18;64.30;94113.94;4951884;29;20259;-81
2023/04/16 07:04:08;;;;;;;11.00;6.17;;;;;;;12.19;64.19;94105.13;4949774;28;20209;-79
2023/04/16 07:06:34;;;;;;;13.70;6.03;;;;;;;12.32;63.09;94107.38;4956708;29;21288;-78
2023/04/16 07:09:01;;;;;;;9.23;5.37;;;;;;;12.43;63.15;94118.72;4951763;29;20281;-79
2023/04/16 07:11:28;;;;;;;10.53;5.60;;;;;;;12.39;63.60;94128.84;4953849;29;20209;-80
2023/04/16 07:13:56;;;;;;;10.07;5.70;;;;;;;12.45;63.88;94122.66;4950198;29;20226;-79
2023/04/16 07:16:23;;;;;;;13.30;5.33;;;;;;;12.45;62.54;94125.25;4947482;29;20202;-79
2023/04/16 07:18:51;;;;;;;8.20;5.10;;;;;;;12.48;62.25;94124.78;4951239;28;20580;-79
2023/04/16 07:21:18;;;;;;;11.43;6.13;;;;;;;12.40;62.54;94127.00;4953795;28;20202;-80
2023/04/16 07:23:45;;;;;;;11.73;6.17;;;;;;;12.36;62.99;94125.91;4951400;29;20204;-80
2023/04/16 07:26:12;;;;;;;13.67;5.70;;;;;;;12.35;62.96;94119.91;4954116;29;20225;-78
2023/04/16 07:28:38;;;;;;;10.43;5.30;;;;;;;12.46;63.10;94126.84;4950706;29;20201;-80
2023/04/16 07:31:06;;;;;;;11.23;5.47;;;;;;;12.55;62.52;94122.00;4950226;29;20233;-79
2023/04/16 07:33:32;;;;;;;11.00;5.47;;;;;;;12.59;62.46;94122.28;4952042;29;20272;-79
2023/04/16 07:36:01;;;;;;;9.97;5.43;;;;;;;12.62;62.56;94117.38;4950171;29;20209;-79
2023/04/16 07:38:27;;;;;;;12.53;5.90;;;;;;;12.76;62.32;94112.56;4949070;29;20321;-79
2023/04/16 07:40:56;;;;;;;11.33;5.53;;;;;;;12.82;61.91;94111.59;4950328;28;20202;-79
2023/04/16 07:43:22;;;;;;;11.53;5.70;;;;;;;12.91;61.59;94121.34;4949240;29;20256;-80
2023/04/16 07:45:49;;;;;;;10.20;5.53;;;;;;;12.92;62.08;94120.34;4947910;29;20222;-79
2023/04/16 07:48:16;;;;;;;12.87;5.73;;;;;;;12.98;61.45;94123.78;4947109;29;20209;-79
2023/04/16 07:50:43;;;;;;;10.83;5.87;;;;;;;12.88;61.56;94114.00;4951583;29;20201;-80
2023/04/16 07:53:11;;;;;;;15.33;6.00;;;;;;;12.88;62.11;94116.63;4951253;29;20280;-83
2023/04/16 07:55:38;;;;;;;13.50;5.60;;;;;;;12.99;62.21;94105.25;4949328;29;20920;-79
2023/04/16 07:58:06;;;;;;;11.13;5.33;;;;;;;13.03;61.94;94108.16;4950052;28;20228;-80
2023/04/16 08:00:33;;;;;;;9.87;5.80;;;;;;;13.05;62.45;94103.47;4949017;29;21640;-79
2023/04/16 08:03:00;;;;;;;12.33;6.20;;;;;;;13.24;61.59;94117.00;4951877;29;20229;-79
2023/04/16 08:05:27;;;;;;;15.13;6.00;;;;;;;13.23;62.20;94116.22;4947808;29;20209;-80
2023/04/16 08:07:54;;;;;;;14.53;6.30;;;;;;;13.31;61.60;94102.72;4952310;28;20240;-79
2023/04/16 08:10:22;;;;;;;15.17;6.37;;;;;;;13.57;61.14;94116.75;4950810;29;20216;-79
2023/04/16 08:12:49;;;;;;;10.93;5.87;;;;;;;13.81;60.95;94109.38;4951001;28;20209;-79
2023/04/16 08:15:16;;;;;;;12.07;6.00;;;;;;;13.97;61.00;94111.03;4949184;28;20217;-80
2023/04/16 08:17:43;;;;;;;10.43;6.03;;;;;;;14.06;60.51;94114.75;4950285;29;20252;-78
2023/04/16 08:20:10;;;;;;;11.73;6.13;;;;;;;14.17;59.46;94096.28;4952811;29;20201;-80
2023/04/16 08:22:37;;;;;;;11.33;5.90;;;;;;;14.39;58.48;94113.66;4950167;28;20689;-79
2023/04/16 08:25:04;;;;;;;9.50;5.73;;;;;;;14.39;58.45;94104.00;4948631;28;20209;-77
2023/04/16 08:27:33;;;;;;;10.80;5.90;;;;;;;14.49;57.92;94104.03;4951121;29;20620;-79
2023/04/16 08:29:59;;;;;;;9.97;5.80;;;;;;;14.62;58.18;94105.41;4951638;28;20621;-80
2023/04/16 08:32:26;;;;;;;15.03;5.80;;;;;;;14.77;57.89;94111.47;4950007;28;20217;-82
2023/04/16 08:34:53;;;;;;;9.50;5.70;;;;;;;14.87;56.53;94110.72;4943642;28;20209;-79
2023/04/16 08:37:20;;;;;;;12.43;5.40;;;;;;;14.99;56.67;94098.19;4947643;29;20206;-79
2023/04/16 08:39:47;;;;;;;11.37;5.40;;;;;;;15.08;56.30;94086.19;4948962;29;20206;-79
2023/04/16 08:42:21;;;;;;;8.73;4.77;;;;;;;15.30;55.97;94096.41;4949838;29;20202;-79
2023/04/16 08:44:59;;;;;;;11.70;5.00;;;;;;;15.45;53.71;94087.78;4943217;29;20203;-79
2023/04/16 08:47:29;;;;;;;11.87;4.87;;;;;;;15.58;53.58;94097.78;4948877;29;20257;-79
2023/04/16 08:49:58;;;;;;;6.87;4.80;;;;;;;15.59;52.93;94092.25;4945733;28;20252;-79
2023/04/16 08:52:30;;;;;;;9.23;5.27;;;;;;;15.58;53.35;94090.72;4948843;29;20197;-80
2023/04/16 08:55:04;;;;;;;11.93;5.07;;;;;;;15.72;53.63;94098.81;4949313;29;20212;-79
2023/04/16 08:57:38;;;;;;;11.60;4.50;;;;;;;15.85;53.53;94093.81;4949179;29;20292;-79
2023/04/16 09:00:08;;;;;;;7.63;4.40;;;;;;;15.93;52.95;94091.72;4945188;29;21062;-77
2023/04/16 09:02:36;;;;;;;8.03;3.70;;;;;;;15.91;52.06;94086.72;4946967;28;20312;-80
2023/04/16 09:05:05;;;;;;;6.93;3.50;;;;;;;16.03;51.02;94082.00;4946692;29;20201;-81
2023/04/16 09:07:33;;;;;;;9.97;3.43;;;;;;;16.07;50.60;94075.19;4948409;29;20227;-79
2023/04/16 09:10:00;;;;;;;7.27;3.57;;;;;;;16.06;50.67;94072.81;4949219;29;20220;-78
2023/04/16 09:12:27;;;;;;;4.37;3.37;;;;;;;16.00;50.71;94069.44;4949673;29;20645;-78
2023/04/16 09:14:56;;;;;;;10.77;4.43;;;;;;;16.04;50.47;94080.16;4946044;29;20205;-78
2023/04/16 09:17:24;;;;;;;6.30;4.00;;;;;;;15.85;51.31;94078.09;4946906;28;20698;-78
2023/04/16 09:19:51;;;;;;;8.63;4.30;;;;;;;15.92;51.24;94080.44;4944329;28;20260;-78
2023/04/16 09:22:18;;;;;;;7.47;3.93;;;;;;;15.84;51.50;94084.38;4944370;28;20573;-79
2023/04/16 09:24:44;;;;;;;10.10;3.50;;;;;;;15.92;51.16;94077.03;4948893;28;20945;-78
2023/04/16 09:27:12;;;;;;;6.87;3.13;;;;;;;15.97;50.91;94075.19;4946783;28;20243;-76
2023/04/16 09:29:40;;;;;;;7.73;2.83;;;;;;;16.11;50.02;94078.03;4944609;28;20292;-77
2023/04/16 09:32:08;;;;;;;8.63;3.40;;;;;;;16.18;49.00;94084.59;4946269;29;20272;-76
2023/04/16 09:34:56;;;;;;;8.30;3.10;;;;;;;16.26;48.99;94084.03;4943987;29;20284;-76
2023/04/16 09:37:23;;;;;;;8.00;3.40;;;;;;;16.40;49.15;94087.66;4943019;29;20178;-76
2023/04/16 09:39:55;;;;;;;7.27;3.27;;;;;;;16.44;48.58;94065.13;4943157;28;20256;-77
2023/04/16 09:42:23;;;;;;;9.27;3.40;;;;;;;16.62;48.25;94078.72;4942420;29;20681;-76
2023/04/16 09:44:50;;;;;;;6.17;3.20;;;;;;;16.70;47.73;94057.94;4944128;29;20206;-77
2023/04/16 09:47:17;;;;;;;10.20;3.63;;;;;;;17.03;47.59;94080.06;4944687;29;20313;-76
2023/04/16 09:49:45;;;;;;;6.40;3.00;;;;;;;17.15;47.36;94075.25;4946159;28;20257;-76
2023/04/16 09:52:15;;;;;;;5.20;3.20;;;;;;;17.39;47.22;94072.75;4944734;29;20268;-75
2023/04/16 09:54:49;;;;;;;9.45;3.58;;;;;;;17.63;45.67;94062.34;4942624;28;20265;-76
2023/04/16 09:57:20;;;;;;;7.57;2.90;;;;;;;17.74;44.80;94071.72;4944638;29;20224;-76
2023/04/16 09:59:47;;;;;;;5.65;2.92;;;;;;;17.75;43.94;94066.16;4943163;28;20209;-77
2023/04/16 10:02:14;;;;;;;7.28;2.90;;;;;;;17.66;44.33;94065.22;4941101;29;20237;-78
2023/04/16 10:04:48;;;;;;;7.68;2.97;;;;;;;17.40;43.94;94056.69;4948240;28;20229;-77
2023/04/16 10:07:17;;;;;;;8.77;3.40;;;;;;;17.29;44.53;94047.31;4943610;29;20228;-77
2023/04/16 10:09:44;;;;;;;8.40;2.97;;;;;;;17.23;45.25;94048.41;4942385;28;20205;-77
2023/04/16 10:12:12;;;;;;;5.73;2.90;;;;;;;17.31;44.71;94047.06;4947365;28;20581;-78
2023/04/16 10:14:39;;;;;;;6.78;2.63;;;;;;;17.34;44.18;94049.16;4943528;29;20313;-78
2023/04/16 10:17:06;;;;;;;8.85;3.38;;;;;;;17.37;45.07;94043.34;4946652;29;20941;-78
2023/04/16 10:19:35;;;;;;;5.53;3.20;;;;;;;17.40;45.08;94040.94;4944757;29;20213;-77
2023/04/16 10:22:02;;;;;;;6.87;3.20;;;;;;;17.36;45.13;94032.06;4944261;29;20229;-76
2023/04/16 10:24:31;;;;;;;6.60;3.25;;;;;;;17.43;44.70;94039.63;4947154;29;20636;-76
2023/04/16 10:26:58;;;;;;;5.03;2.97;;;;;;;17.32;44.82;94041.53;4944762;29;20361;-78
2023/04/16 10:29:27;;;;;;;5.93;3.23;;;;;;;17.30;45.49;94043.66;4941926;29;20626;-77
2023/04/16 10:31:55;;;;;;;5.57;2.80;;;;;;;17.35;45.17;94040.19;4942516;29;20217;-76
2023/04/16 10:34:23;;;;;;;5.50;2.97;;;;;;;17.47;45.28;94027.50;4946430;29;20209;-76
2023/04/16 10:36:52;;;;;;;7.00;3.20;;;;;;;17.56;45.10;94026.66;4943061;29;20193;-76
2023/04/16 10:39:21;;;;;;;7.03;3.40;;;;;;;17.76;45.43;94032.78;4946459;28;20221;-78
2023/04/16 10:41:49;;;;;;;6.03;3.03;;;;;;;17.86;45.55;94028.22;4948151;28;20260;-77
2023/04/16 10:44:18;;;;;;;8.93;3.30;;;;;;;18.06;45.21;94022.75;4946383;29;20820;-76
2023/04/16 10:46:49;;;;;;;7.70;3.33;;;;;;;18.22;44.08;94033.88;4950465;29;20197;-76
2023/04/16 10:49:18;;;;;;;7.57;3.38;;;;;;;18.27;44.19;94035.69;4948328;29;20209;-77
2023/04/16 10:51:53;;;;;;;9.38;3.20;;;;;;;18.38;44.11;94037.13;4949692;29;20205;-78
2023/04/16 10:54:23;;;;;;;5.80;3.58;;;;;;;18.54;43.25;94030.66;4944481;29;20202;-77
2023/04/16 10:56:52;;;;;;;6.90;3.60;;;;;;;18.56;43.58;94034.56;4947480;29;20221;-76
2023/04/16 10:59:20;;;;;;;10.65;3.63;;;;;;;18.60;43.33;94013.72;4946213;29;20584;-76
2023/04/16 11:01:48;;;;;;;8.48;3.30;;;;;;;18.79;43.58;94029.56;4948052;29;20750;-79
2023/04/16 11:04:36;;;;;;;9.68;3.30;;;;;;;18.87;43.66;94019.16;4949240;29;20564;-79
2023/04/16 11:07:06;;;;;;;5.57;3.22;;;;;;;19.09;42.81;94019.38;4946594;29;21355;-79
2023/04/16 11:09:53;;;;;;;6.25;3.00;;;;;;;19.34;41.61;94020.03;4952691;29;20228;-78
2023/04/16 11:12:22;;;;;;;7.25;3.03;;;;;;;19.67;40.54;94024.28;4945234;29;20316;-79
2023/04/16 11:14:50;;;;;;;4.97;3.08;;;;;;;19.94;40.52;94019.06;4946320;29;20205;-79
2023/04/16 11:17:18;;;;;;;6.05;2.90;;;;;;;20.22;40.43;94023.31;4945881;28;20205;-79
2023/04/16 11:19:45;;;;;;;7.03;3.10;;;;;;;20.52;40.11;94015.91;4949242;29;20197;-79
2023/04/16 11:22:17;;;;;;;4.13;3.25;;;;;;;20.64;39.29;94009.00;4949053;29;20575;-79
2023/04/16 11:24:44;;;;;;;7.70;2.85;;;;;;;20.51;38.53;94001.91;4946564;29;20572;-79
2023/04/16 11:27:14;;;;;;;6.72;3.75;;;;;;;20.46;38.98;94001.97;4948909;29;20222;-78
2023/04/16 11:29:42;;;;;;;6.00;3.47;;;;;;;20.08;39.34;94003.25;4950907;29;20889;-79
2023/04/16 11:32:09;;;;;;;5.40;3.08;;;;;;;19.81;40.22;93999.50;4945725;29;20201;-78